createdAt,value
2023-03-23T16:00:55.849Z,61.05
2023-03-23T16:06:03.428Z,60.03
2023-03-23T16:11:08.105Z,61.60
2023-03-23T16:16:17.583Z,61.80
2023-03-23T16:21:23.655Z,63.26
2023-03-23T16:26:27.860Z,59.96
2023-03-23T16:31:32.047Z,59.53
2023-03-23T16:36:37.798Z,60.96
2023-03-23T16:41:42.374Z,64.08
2023-03-23T16:46:46.519Z,63.94
2023-03-23T16:51:52.062Z,63.23
2023-03-23T16:56:55.930Z,61.29
2023-03-23T17:02:03.755Z,63.61
2023-03-23T17:07:09.605Z,62.58
2023-03-23T17:12:13.432Z,60.88
2023-03-23T17:17:17.605Z,61.43
2023-03-23T17:22:23.347Z,60.48
2023-03-23T17:27:27.640Z,62.10
2023-03-23T17:32:32.111Z,62.66
2023-03-23T17:37:39.554Z,62.81
2023-03-23T17:42:44.243Z,61.94
2023-03-23T17:47:48.569Z,61.95
2023-03-23T17:52:57.128Z,62.64
2023-03-23T17:58:01.662Z,61.03
2023-03-23T18:03:06.104Z,61.48
2023-03-23T18:08:12.318Z,60.58
2023-03-23T18:13:16.745Z,60.29
2023-03-23T18:18:21.037Z,62.04
2023-03-23T18:23:27.575Z,62.50
2023-03-23T18:28:31.945Z,60.03
2023-03-23T18:33:37.706Z,59.01
2023-03-23T18:38:43.252Z,59.09
2023-03-23T18:43:47.333Z,59.90
2023-03-23T18:48:51.804Z,62.10
2023-03-23T18:53:57.407Z,62.62
2023-03-23T18:59:01.244Z,61.04
2023-03-23T19:04:06.363Z,63.51
2023-03-23T19:09:12.974Z,65.97
2023-03-23T19:14:17.771Z,65.72
2023-03-23T19:19:22.037Z,66.88
2023-03-23T19:24:30.358Z,69.10
2023-03-23T19:29:36.904Z,71.35
2023-03-23T19:34:41.150Z,74.74
2023-03-23T19:39:46.636Z,73.79
2023-03-23T19:44:50.850Z,72.77
2023-03-23T19:49:56.673Z,71.75
2023-03-23T19:55:02.421Z,71.55
2023-03-23T20:00:08.186Z,71.74
2023-03-23T20:05:12.665Z,69.94
2023-03-23T20:10:18.423Z,71.00
2023-03-23T20:15:22.728Z,70.53
2023-03-23T20:20:28.096Z,71.95
2023-03-23T20:25:33.667Z,71.69
2023-03-23T20:30:39.020Z,73.63
2023-03-23T20:35:43.699Z,74.28
2023-03-23T20:40:49.660Z,71.52
2023-03-23T20:45:53.770Z,73.25
2023-03-23T20:50:58.574Z,72.06
2023-03-23T20:56:07.017Z,71.67
2023-03-23T21:01:12.388Z,70.89
2023-03-23T21:06:16.772Z,75.25
2023-03-23T21:11:24.184Z,74.25
2023-03-23T21:16:28.956Z,73.17
2023-03-23T21:21:34.276Z,76.11
2023-03-23T21:26:41.140Z,75.25
2023-03-23T21:31:46.166Z,73.12
2023-03-23T21:36:51.452Z,75.18
2023-03-23T21:41:59.572Z,74.42
2023-03-23T21:47:04.015Z,74.28
2023-03-23T21:52:08.110Z,74.66
2023-03-23T21:57:13.792Z,72.73
2023-03-23T22:02:18.150Z,72.24
2023-03-23T22:07:24.141Z,74.68
2023-03-23T22:12:29.878Z,72.81
2023-03-23T22:17:34.124Z,74.83
2023-03-23T22:22:38.415Z,72.37
2023-03-23T22:27:44.790Z,73.88
2023-03-23T22:32:49.300Z,74.83
2023-03-23T22:37:53.910Z,75.11
2023-03-23T22:42:59.781Z,73.96
2023-03-23T22:48:05.964Z,73.57
2023-03-23T22:53:10.334Z,72.98
2023-03-23T22:58:19.031Z,73.24
2023-03-23T23:03:23.451Z,73.47
2023-03-23T23:08:30.192Z,72.65
2023-03-23T23:13:35.965Z,70.93
2023-03-23T23:18:40.692Z,73.15
2023-03-23T23:23:46.515Z,72.66
2023-03-23T23:28:52.972Z,74.33
2023-03-23T23:33:59.545Z,73.70
2023-03-23T23:39:05.916Z,75.00
2023-03-23T23:44:11.666Z,74.18
2023-03-23T23:49:15.973Z,74.61
2023-03-23T23:54:22.849Z,76.28
2023-03-23T23:59:29.126Z,74.77
